sensor_id;sensor_type;location;lat;lon;timestamp;P1;durP1;ratioP1;P2;durP2;ratioP2
36747;SDS011;22716;51.556;5.080;2022-10-03T00:01:50;14.73;;;4.97;;
36747;SDS011;22716;51.556;5.080;2022-10-03T00:10:08;14.60;;;5.00;;
36747;SDS011;22716;51.556;5.080;2022-10-03T00:13:06;11.30;;;3.67;;
36747;SDS011;22716;51.556;5.080;2022-10-03T00:16:00;11.27;;;3.83;;
36747;SDS011;22716;51.556;5.080;2022-10-03T00:18:48;13.90;;;4.07;;
36747;SDS011;22716;51.556;5.080;2022-10-03T00:21:29;18.67;;;4.67;;
36747;SDS011;22716;51.556;5.080;2022-10-03T00:24:18;10.90;;;5.27;;
36747;SDS011;22716;51.556;5.080;2022-10-03T00:26:57;10.73;;;4.00;;
36747;SDS011;22716;51.556;5.080;2022-10-03T00:29:39;14.33;;;4.13;;
36747;SDS011;22716;51.556;5.080;2022-10-03T00:35:01;10.80;;;3.87;;
36747;SDS011;22716;51.556;5.080;2022-10-03T00:37:43;16.58;;;5.10;;
36747;SDS011;22716;51.556;5.080;2022-10-03T00:40:40;20.20;;;5.37;;
36747;SDS011;22716;51.556;5.080;2022-10-03T00:46:34;12.40;;;4.07;;
36747;SDS011;22716;51.556;5.080;2022-10-03T00:52:48;14.23;;;4.83;;
36747;SDS011;22716;51.556;5.080;2022-10-03T00:55:34;13.53;;;6.40;;
36747;SDS011;22716;51.556;5.080;2022-10-03T00:58:36;12.50;;;4.00;;
36747;SDS011;22716;51.556;5.080;2022-10-03T01:01:23;15.67;;;3.93;;
36747;SDS011;22716;51.556;5.080;2022-10-03T01:04:05;11.97;;;4.80;;
36747;SDS011;22716;51.556;5.080;2022-10-03T01:06:53;11.63;;;4.33;;
36747;SDS011;22716;51.556;5.080;2022-10-03T01:09:41;11.33;;;4.33;;
36747;SDS011;22716;51.556;5.080;2022-10-03T01:12:40;10.23;;;5.37;;
36747;SDS011;22716;51.556;5.080;2022-10-03T01:15:27;14.93;;;4.13;;
36747;SDS011;22716;51.556;5.080;2022-10-03T01:18:22;16.67;;;4.75;;
36747;SDS011;22716;51.556;5.080;2022-10-03T01:21:06;17.90;;;4.53;;
36747;SDS011;22716;51.556;5.080;2022-10-03T01:24:03;17.90;;;5.13;;
36747;SDS011;22716;51.556;5.080;2022-10-03T01:26:56;11.50;;;4.37;;
36747;SDS011;22716;51.556;5.080;2022-10-03T01:32:35;13.90;;;4.60;;
36747;SDS011;22716;51.556;5.080;2022-10-03T01:35:21;9.37;;;3.90;;
36747;SDS011;22716;51.556;5.080;2022-10-03T01:38:02;8.50;;;3.87;;
36747;SDS011;22716;51.556;5.080;2022-10-03T01:40:42;11.27;;;4.63;;
36747;SDS011;22716;51.556;5.080;2022-10-03T01:43:30;12.17;;;4.77;;
36747;SDS011;22716;51.556;5.080;2022-10-03T01:46:14;10.60;;;4.40;;
36747;SDS011;22716;51.556;5.080;2022-10-03T01:49:10;9.83;;;3.77;;
36747;SDS011;22716;51.556;5.080;2022-10-03T01:51:51;9.37;;;4.53;;
36747;SDS011;22716;51.556;5.080;2022-10-03T01:54:28;9.43;;;3.33;;
36747;SDS011;22716;51.556;5.080;2022-10-03T01:57:10;12.27;;;4.50;;
36747;SDS011;22716;51.556;5.080;2022-10-03T02:00:10;15.73;;;5.30;;
36747;SDS011;22716;51.556;5.080;2022-10-03T02:05:27;13.23;;;4.80;;
36747;SDS011;22716;51.556;5.080;2022-10-03T02:08:14;15.87;;;4.53;;
36747;SDS011;22716;51.556;5.080;2022-10-03T02:10:59;11.73;;;4.77;;
36747;SDS011;22716;51.556;5.080;2022-10-03T02:13:50;15.57;;;4.40;;
36747;SDS011;22716;51.556;5.080;2022-10-03T02:16:28;14.20;;;3.80;;
36747;SDS011;22716;51.556;5.080;2022-10-03T02:19:15;6.87;;;3.40;;
36747;SDS011;22716;51.556;5.080;2022-10-03T02:21:52;8.93;;;5.03;;
36747;SDS011;22716;51.556;5.080;2022-10-03T02:24:35;15.73;;;4.33;;
36747;SDS011;22716;51.556;5.080;2022-10-03T02:30:30;8.57;;;3.57;;
36747;SDS011;22716;51.556;5.080;2022-10-03T02:39:53;12.63;;;5.03;;
36747;SDS011;22716;51.556;5.080;2022-10-03T02:49:10;8.43;;;3.53;;
36747;SDS011;22716;51.556;5.080;2022-10-03T02:55:08;10.73;;;3.78;;
36747;SDS011;22716;51.556;5.080;2022-10-03T03:04:22;10.53;;;4.83;;
36747;SDS011;22716;51.556;5.080;2022-10-03T03:07:24;10.60;;;4.07;;
36747;SDS011;22716;51.556;5.080;2022-10-03T03:10:15;14.03;;;5.10;;
36747;SDS011;22716;51.556;5.080;2022-10-03T03:16:31;8.53;;;3.57;;
36747;SDS011;22716;51.556;5.080;2022-10-03T03:19:37;12.20;;;4.30;;
36747;SDS011;22716;51.556;5.080;2022-10-03T03:22:37;10.97;;;4.20;;
36747;SDS011;22716;51.556;5.080;2022-10-03T03:28:22;10.50;;;4.00;;
36747;SDS011;22716;51.556;5.080;2022-10-03T03:31:03;13.97;;;4.00;;
36747;SDS011;22716;51.556;5.080;2022-10-03T03:33:52;12.33;;;4.00;;
36747;SDS011;22716;51.556;5.080;2022-10-03T03:36:29;9.60;;;4.23;;
36747;SDS011;22716;51.556;5.080;2022-10-03T03:39:27;9.03;;;3.83;;
36747;SDS011;22716;51.556;5.080;2022-10-03T03:42:18;9.93;;;4.33;;
36747;SDS011;22716;51.556;5.080;2022-10-03T03:45:32;11.57;;;4.60;;
36747;SDS011;22716;51.556;5.080;2022-10-03T03:48:30;10.43;;;4.37;;
36747;SDS011;22716;51.556;5.080;2022-10-03T03:51:20;14.33;;;5.00;;
36747;SDS011;22716;51.556;5.080;2022-10-03T04:00:05;6.80;;;4.10;;
36747;SDS011;22716;51.556;5.080;2022-10-03T04:02:54;14.83;;;5.70;;
36747;SDS011;22716;51.556;5.080;2022-10-03T04:05:42;7.57;;;5.03;;
36747;SDS011;22716;51.556;5.080;2022-10-03T04:08:32;9.83;;;3.80;;
36747;SDS011;22716;51.556;5.080;2022-10-03T04:11:17;7.57;;;3.90;;
36747;SDS011;22716;51.556;5.080;2022-10-03T04:17:06;9.30;;;3.13;;
36747;SDS011;22716;51.556;5.080;2022-10-03T04:20:07;7.83;;;4.20;;
36747;SDS011;22716;51.556;5.080;2022-10-03T04:22:57;7.05;;;3.17;;
36747;SDS011;22716;51.556;5.080;2022-10-03T04:26:05;11.60;;;3.87;;
36747;SDS011;22716;51.556;5.080;2022-10-03T04:28:57;12.50;;;4.87;;
36747;SDS011;22716;51.556;5.080;2022-10-03T04:31:56;8.90;;;4.00;;
36747;SDS011;22716;51.556;5.080;2022-10-03T04:34:44;12.40;;;3.63;;
36747;SDS011;22716;51.556;5.080;2022-10-03T04:37:30;8.70;;;3.83;;
36747;SDS011;22716;51.556;5.080;2022-10-03T04:40:09;11.03;;;3.87;;
36747;SDS011;22716;51.556;5.080;2022-10-03T04:43:01;11.47;;;3.20;;
36747;SDS011;22716;51.556;5.080;2022-10-03T04:48:52;6.47;;;3.43;;
36747;SDS011;22716;51.556;5.080;2022-10-03T04:51:37;9.77;;;3.53;;
36747;SDS011;22716;51.556;5.080;2022-10-03T04:54:16;9.37;;;3.60;;
36747;SDS011;22716;51.556;5.080;2022-10-03T04:56:57;7.87;;;4.00;;
36747;SDS011;22716;51.556;5.080;2022-10-03T04:59:47;7.63;;;3.83;;
36747;SDS011;22716;51.556;5.080;2022-10-03T05:02:32;12.20;;;3.30;;
36747;SDS011;22716;51.556;5.080;2022-10-03T05:05:39;14.80;;;3.80;;
36747;SDS011;22716;51.556;5.080;2022-10-03T05:08:35;10.60;;;4.00;;
36747;SDS011;22716;51.556;5.080;2022-10-03T05:11:16;11.30;;;4.67;;
36747;SDS011;22716;51.556;5.080;2022-10-03T05:14:02;25.07;;;12.40;;
36747;SDS011;22716;51.556;5.080;2022-10-03T05:16:45;22.97;;;15.30;;
36747;SDS011;22716;51.556;5.080;2022-10-03T05:19:36;17.43;;;9.93;;
36747;SDS011;22716;51.556;5.080;2022-10-03T05:22:47;10.10;;;5.20;;
36747;SDS011;22716;51.556;5.080;2022-10-03T05:25:35;7.95;;;4.22;;
36747;SDS011;22716;51.556;5.080;2022-10-03T05:28:23;9.20;;;3.47;;
36747;SDS011;22716;51.556;5.080;2022-10-03T05:31:11;6.33;;;3.67;;
36747;SDS011;22716;51.556;5.080;2022-10-03T05:34:00;8.77;;;4.23;;
36747;SDS011;22716;51.556;5.080;2022-10-03T05:36:49;5.43;;;3.23;;
36747;SDS011;22716;51.556;5.080;2022-10-03T05:39:52;7.07;;;2.67;;
36747;SDS011;22716;51.556;5.080;2022-10-03T05:42:38;11.23;;;3.33;;
36747;SDS011;22716;51.556;5.080;2022-10-03T05:45:23;7.00;;;4.03;;
36747;SDS011;22716;51.556;5.080;2022-10-03T05:48:06;10.37;;;3.83;;
36747;SDS011;22716;51.556;5.080;2022-10-03T05:50:51;15.43;;;3.77;;
36747;SDS011;22716;51.556;5.080;2022-10-03T05:53:54;8.37;;;3.93;;
36747;SDS011;22716;51.556;5.080;2022-10-03T05:56:39;9.13;;;4.00;;
36747;SDS011;22716;51.556;5.080;2022-10-03T06:06:10;8.67;;;3.67;;
36747;SDS011;22716;51.556;5.080;2022-10-03T06:12:04;13.40;;;4.30;;
36747;SDS011;22716;51.556;5.080;2022-10-03T06:17:56;10.00;;;4.10;;
36747;SDS011;22716;51.556;5.080;2022-10-03T06:20:39;10.67;;;3.70;;
36747;SDS011;22716;51.556;5.080;2022-10-03T06:26:57;14.27;;;3.80;;
36747;SDS011;22716;51.556;5.080;2022-10-03T06:29:56;8.97;;;3.47;;
36747;SDS011;22716;51.556;5.080;2022-10-03T06:32:53;11.57;;;4.70;;
36747;SDS011;22716;51.556;5.080;2022-10-03T06:36:04;14.03;;;4.90;;
36747;SDS011;22716;51.556;5.080;2022-10-03T06:42:09;6.57;;;3.00;;
36747;SDS011;22716;51.556;5.080;2022-10-03T06:45:03;10.87;;;4.40;;
36747;SDS011;22716;51.556;5.080;2022-10-03T06:48:06;12.80;;;4.50;;
36747;SDS011;22716;51.556;5.080;2022-10-03T06:50:52;11.57;;;4.40;;
36747;SDS011;22716;51.556;5.080;2022-10-03T06:53:38;7.57;;;3.20;;
36747;SDS011;22716;51.556;5.080;2022-10-03T06:56:34;10.50;;;3.83;;
36747;SDS011;22716;51.556;5.080;2022-10-03T06:59:26;10.40;;;3.90;;
36747;SDS011;22716;51.556;5.080;2022-10-03T07:02:20;8.63;;;4.17;;
36747;SDS011;22716;51.556;5.080;2022-10-03T07:08:38;14.53;;;5.00;;
36747;SDS011;22716;51.556;5.080;2022-10-03T07:17:39;14.93;;;4.80;;
36747;SDS011;22716;51.556;5.080;2022-10-03T07:20:40;10.47;;;4.57;;
36747;SDS011;22716;51.556;5.080;2022-10-03T07:23:55;8.30;;;4.37;;
36747;SDS011;22716;51.556;5.080;2022-10-03T07:26:50;10.00;;;4.07;;
36747;SDS011;22716;51.556;5.080;2022-10-03T07:29:46;9.03;;;3.97;;
36747;SDS011;22716;51.556;5.080;2022-10-03T07:32:35;8.57;;;3.70;;
36747;SDS011;22716;51.556;5.080;2022-10-03T07:35:38;11.63;;;4.17;;
36747;SDS011;22716;51.556;5.080;2022-10-03T07:38:34;12.93;;;3.63;;
36747;SDS011;22716;51.556;5.080;2022-10-03T07:41:31;7.87;;;4.10;;
36747;SDS011;22716;51.556;5.080;2022-10-03T07:44:35;7.53;;;3.40;;
36747;SDS011;22716;51.556;5.080;2022-10-03T07:50:47;7.87;;;3.30;;
36747;SDS011;22716;51.556;5.080;2022-10-03T07:53:30;14.50;;;5.23;;
36747;SDS011;22716;51.556;5.080;2022-10-03T07:59:55;23.23;;;4.07;;
36747;SDS011;22716;51.556;5.080;2022-10-03T08:02:52;7.87;;;3.87;;
36747;SDS011;22716;51.556;5.080;2022-10-03T08:05:57;11.53;;;4.13;;
36747;SDS011;22716;51.556;5.080;2022-10-03T08:15:08;9.97;;;3.70;;
36747;SDS011;22716;51.556;5.080;2022-10-03T08:18:04;8.60;;;3.63;;
36747;SDS011;22716;51.556;5.080;2022-10-03T08:21:01;6.07;;;3.07;;
36747;SDS011;22716;51.556;5.080;2022-10-03T08:23:37;10.13;;;3.63;;
36747;SDS011;22716;51.556;5.080;2022-10-03T08:26:36;7.90;;;3.70;;
36747;SDS011;22716;51.556;5.080;2022-10-03T08:29:29;10.23;;;3.63;;
36747;SDS011;22716;51.556;5.080;2022-10-03T08:32:33;11.63;;;4.87;;
36747;SDS011;22716;51.556;5.080;2022-10-03T08:35:35;19.70;;;9.87;;
36747;SDS011;22716;51.556;5.080;2022-10-03T08:44:41;11.33;;;3.87;;
36747;SDS011;22716;51.556;5.080;2022-10-03T08:47:37;11.17;;;4.47;;
36747;SDS011;22716;51.556;5.080;2022-10-03T08:50:37;9.30;;;4.30;;
36747;SDS011;22716;51.556;5.080;2022-10-03T08:56:50;14.97;;;6.23;;
36747;SDS011;22716;51.556;5.080;2022-10-03T08:59:53;7.63;;;4.50;;
36747;SDS011;22716;51.556;5.080;2022-10-03T09:05:56;12.23;;;3.97;;
36747;SDS011;22716;51.556;5.080;2022-10-03T09:15:27;12.43;;;4.13;;
36747;SDS011;22716;51.556;5.080;2022-10-03T09:18:40;12.60;;;6.33;;
36747;SDS011;22716;51.556;5.080;2022-10-03T09:21:28;10.53;;;5.93;;
36747;SDS011;22716;51.556;5.080;2022-10-03T09:24:25;7.63;;;3.73;;
36747;SDS011;22716;51.556;5.080;2022-10-03T09:30:38;10.10;;;3.90;;
36747;SDS011;22716;51.556;5.080;2022-10-03T09:33:32;7.60;;;3.70;;
36747;SDS011;22716;51.556;5.080;2022-10-03T09:36:34;9.50;;;3.30;;
36747;SDS011;22716;51.556;5.080;2022-10-03T09:39:43;10.17;;;3.93;;
36747;SDS011;22716;51.556;5.080;2022-10-03T09:42:56;14.63;;;4.23;;
36747;SDS011;22716;51.556;5.080;2022-10-03T09:45:52;10.57;;;3.37;;
36747;SDS011;22716;51.556;5.080;2022-10-03T09:51:44;8.07;;;3.87;;
36747;SDS011;22716;51.556;5.080;2022-10-03T09:54:32;14.43;;;3.63;;
36747;SDS011;22716;51.556;5.080;2022-10-03T10:00:57;10.17;;;3.40;;
36747;SDS011;22716;51.556;5.080;2022-10-03T10:07:14;7.30;;;2.80;;
36747;SDS011;22716;51.556;5.080;2022-10-03T10:10:15;7.57;;;2.23;;
36747;SDS011;22716;51.556;5.080;2022-10-03T10:13:38;9.07;;;2.73;;
36747;SDS011;22716;51.556;5.080;2022-10-03T10:19:45;14.83;;;2.53;;
36747;SDS011;22716;51.556;5.080;2022-10-03T10:25:50;6.17;;;2.20;;
36747;SDS011;22716;51.556;5.080;2022-10-03T10:29:04;8.53;;;3.30;;
36747;SDS011;22716;51.556;5.080;2022-10-03T10:32:16;9.43;;;2.83;;
36747;SDS011;22716;51.556;5.080;2022-10-03T10:35:22;7.43;;;2.70;;
36747;SDS011;22716;51.556;5.080;2022-10-03T10:38:19;7.53;;;2.43;;
36747;SDS011;22716;51.556;5.080;2022-10-03T10:56:55;9.45;;;2.08;;
36747;SDS011;22716;51.556;5.080;2022-10-03T11:09:03;5.87;;;2.00;;
36747;SDS011;22716;51.556;5.080;2022-10-03T11:12:21;6.50;;;2.03;;
36747;SDS011;22716;51.556;5.080;2022-10-03T11:18:50;7.30;;;2.73;;
36747;SDS011;22716;51.556;5.080;2022-10-03T11:21:47;5.37;;;1.90;;
36747;SDS011;22716;51.556;5.080;2022-10-03T11:28:07;4.33;;;1.60;;
36747;SDS011;22716;51.556;5.080;2022-10-03T11:34:41;7.03;;;2.20;;
36747;SDS011;22716;51.556;5.080;2022-10-03T11:37:40;6.70;;;2.30;;
36747;SDS011;22716;51.556;5.080;2022-10-03T11:40:24;6.63;;;2.10;;
36747;SDS011;22716;51.556;5.080;2022-10-03T11:46:19;8.90;;;2.57;;
36747;SDS011;22716;51.556;5.080;2022-10-03T11:49:00;5.97;;;2.83;;
36747;SDS011;22716;51.556;5.080;2022-10-03T11:51:36;6.87;;;2.77;;
36747;SDS011;22716;51.556;5.080;2022-10-03T11:54:15;7.93;;;2.17;;
36747;SDS011;22716;51.556;5.080;2022-10-03T11:56:53;9.87;;;2.73;;
36747;SDS011;22716;51.556;5.080;2022-10-03T11:59:39;5.63;;;1.90;;
36747;SDS011;22716;51.556;5.080;2022-10-03T12:02:38;6.77;;;2.60;;
36747;SDS011;22716;51.556;5.080;2022-10-03T12:05:55;8.40;;;2.20;;
36747;SDS011;22716;51.556;5.080;2022-10-03T12:09:04;5.27;;;2.00;;
36747;SDS011;22716;51.556;5.080;2022-10-03T12:11:50;6.30;;;2.07;;
36747;SDS011;22716;51.556;5.080;2022-10-03T12:14:25;6.13;;;2.30;;
36747;SDS011;22716;51.556;5.080;2022-10-03T12:17:04;5.57;;;1.80;;
36747;SDS011;22716;51.556;5.080;2022-10-03T12:19:43;6.57;;;2.40;;
36747;SDS011;22716;51.556;5.080;2022-10-03T12:22:31;9.57;;;2.77;;
36747;SDS011;22716;51.556;5.080;2022-10-03T12:25:18;9.83;;;2.97;;
36747;SDS011;22716;51.556;5.080;2022-10-03T12:28:08;6.32;;;2.50;;
36747;SDS011;22716;51.556;5.080;2022-10-03T12:30:48;11.53;;;2.63;;
36747;SDS011;22716;51.556;5.080;2022-10-03T12:33:34;5.37;;;2.00;;
36747;SDS011;22716;51.556;5.080;2022-10-03T12:36:24;8.57;;;2.40;;
36747;SDS011;22716;51.556;5.080;2022-10-03T12:39:01;10.63;;;3.33;;
36747;SDS011;22716;51.556;5.080;2022-10-03T12:41:49;9.77;;;2.57;;
36747;SDS011;22716;51.556;5.080;2022-10-03T12:44:37;12.37;;;2.43;;
36747;SDS011;22716;51.556;5.080;2022-10-03T12:47:20;11.40;;;3.37;;
36747;SDS011;22716;51.556;5.080;2022-10-03T12:50:00;5.53;;;2.27;;
36747;SDS011;22716;51.556;5.080;2022-10-03T12:52:44;12.10;;;2.87;;
36747;SDS011;22716;51.556;5.080;2022-10-03T12:55:24;7.40;;;2.50;;
36747;SDS011;22716;51.556;5.080;2022-10-03T12:58:02;7.77;;;2.13;;
36747;SDS011;22716;51.556;5.080;2022-10-03T13:00:48;8.87;;;2.40;;
36747;SDS011;22716;51.556;5.080;2022-10-03T13:03:32;11.60;;;2.30;;
36747;SDS011;22716;51.556;5.080;2022-10-03T13:06:21;4.03;;;1.90;;
36747;SDS011;22716;51.556;5.080;2022-10-03T13:09:14;6.60;;;2.60;;
36747;SDS011;22716;51.556;5.080;2022-10-03T13:11:57;6.83;;;2.90;;
36747;SDS011;22716;51.556;5.080;2022-10-03T13:14:39;7.00;;;2.77;;
36747;SDS011;22716;51.556;5.080;2022-10-03T13:17:35;7.13;;;2.23;;
36747;SDS011;22716;51.556;5.080;2022-10-03T13:20:18;13.10;;;3.00;;
36747;SDS011;22716;51.556;5.080;2022-10-03T13:22:56;6.67;;;2.80;;
36747;SDS011;22716;51.556;5.080;2022-10-03T13:25:34;7.33;;;2.97;;
36747;SDS011;22716;51.556;5.080;2022-10-03T13:28:11;10.37;;;3.07;;
36747;SDS011;22716;51.556;5.080;2022-10-03T13:30:45;11.60;;;3.70;;
36747;SDS011;22716;51.556;5.080;2022-10-03T13:33:21;11.03;;;4.00;;
36747;SDS011;22716;51.556;5.080;2022-10-03T13:35:57;8.87;;;2.93;;
36747;SDS011;22716;51.556;5.080;2022-10-03T13:38:41;9.67;;;2.87;;
36747;SDS011;22716;51.556;5.080;2022-10-03T13:41:36;12.40;;;2.93;;
36747;SDS011;22716;51.556;5.080;2022-10-03T13:44:43;10.83;;;2.67;;
36747;SDS011;22716;51.556;5.080;2022-10-03T13:47:25;8.67;;;3.27;;
36747;SDS011;22716;51.556;5.080;2022-10-03T13:50:16;6.93;;;3.20;;
36747;SDS011;22716;51.556;5.080;2022-10-03T13:52:58;13.80;;;3.10;;
36747;SDS011;22716;51.556;5.080;2022-10-03T13:55:41;10.23;;;3.00;;
36747;SDS011;22716;51.556;5.080;2022-10-03T14:01:23;7.97;;;2.80;;
36747;SDS011;22716;51.556;5.080;2022-10-03T14:04:26;10.13;;;2.87;;
36747;SDS011;22716;51.556;5.080;2022-10-03T14:07:14;8.00;;;3.40;;
36747;SDS011;22716;51.556;5.080;2022-10-03T14:09:57;7.67;;;3.20;;
36747;SDS011;22716;51.556;5.080;2022-10-03T14:12:48;10.30;;;3.90;;
36747;SDS011;22716;51.556;5.080;2022-10-03T14:15:32;5.30;;;2.63;;
36747;SDS011;22716;51.556;5.080;2022-10-03T14:18:17;8.70;;;2.20;;
36747;SDS011;22716;51.556;5.080;2022-10-03T14:21:10;11.43;;;2.93;;
36747;SDS011;22716;51.556;5.080;2022-10-03T14:24:05;8.90;;;3.40;;
36747;SDS011;22716;51.556;5.080;2022-10-03T14:29:23;9.80;;;4.27;;
36747;SDS011;22716;51.556;5.080;2022-10-03T14:32:00;6.93;;;3.10;;
36747;SDS011;22716;51.556;5.080;2022-10-03T14:34:39;12.63;;;3.57;;
36747;SDS011;22716;51.556;5.080;2022-10-03T14:37:20;7.10;;;3.20;;
36747;SDS011;22716;51.556;5.080;2022-10-03T14:40:02;15.80;;;4.23;;
36747;SDS011;22716;51.556;5.080;2022-10-03T14:42:49;18.73;;;4.40;;
36747;SDS011;22716;51.556;5.080;2022-10-03T14:45:56;8.13;;;3.10;;
36747;SDS011;22716;51.556;5.080;2022-10-03T14:48:29;8.80;;;3.27;;
36747;SDS011;22716;51.556;5.080;2022-10-03T14:53:36;13.03;;;4.53;;
36747;SDS011;22716;51.556;5.080;2022-10-03T14:56:07;10.40;;;3.53;;
36747;SDS011;22716;51.556;5.080;2022-10-03T14:58:43;5.17;;;3.67;;
36747;SDS011;22716;51.556;5.080;2022-10-03T15:01:18;8.07;;;3.60;;
36747;SDS011;22716;51.556;5.080;2022-10-03T15:03:54;12.13;;;4.63;;
36747;SDS011;22716;51.556;5.080;2022-10-03T15:06:33;9.80;;;4.80;;
36747;SDS011;22716;51.556;5.080;2022-10-03T15:09:21;8.80;;;3.37;;
36747;SDS011;22716;51.556;5.080;2022-10-03T15:11:55;8.50;;;4.03;;
36747;SDS011;22716;51.556;5.080;2022-10-03T15:14:35;10.03;;;4.27;;
36747;SDS011;22716;51.556;5.080;2022-10-03T15:17:18;8.40;;;4.17;;
36747;SDS011;22716;51.556;5.080;2022-10-03T15:19:50;9.70;;;3.97;;
36747;SDS011;22716;51.556;5.080;2022-10-03T15:22:27;6.90;;;3.13;;
36747;SDS011;22716;51.556;5.080;2022-10-03T15:25:03;15.27;;;4.50;;
36747;SDS011;22716;51.556;5.080;2022-10-03T15:27:41;15.60;;;4.10;;
36747;SDS011;22716;51.556;5.080;2022-10-03T15:30:18;9.10;;;3.57;;
36747;SDS011;22716;51.556;5.080;2022-10-03T15:32:54;9.00;;;3.30;;
36747;SDS011;22716;51.556;5.080;2022-10-03T15:35:31;10.30;;;3.87;;
36747;SDS011;22716;51.556;5.080;2022-10-03T15:38:08;6.00;;;2.97;;
36747;SDS011;22716;51.556;5.080;2022-10-03T15:40:44;7.20;;;3.47;;
36747;SDS011;22716;51.556;5.080;2022-10-03T15:43:29;9.10;;;3.67;;
36747;SDS011;22716;51.556;5.080;2022-10-03T15:46:05;12.10;;;3.53;;
36747;SDS011;22716;51.556;5.080;2022-10-03T15:48:45;13.97;;;5.20;;
36747;SDS011;22716;51.556;5.080;2022-10-03T15:51:21;9.13;;;3.43;;
36747;SDS011;22716;51.556;5.080;2022-10-03T15:53:57;9.83;;;3.43;;
36747;SDS011;22716;51.556;5.080;2022-10-03T15:56:30;8.93;;;2.93;;
36747;SDS011;22716;51.556;5.080;2022-10-03T15:59:06;8.30;;;3.43;;
36747;SDS011;22716;51.556;5.080;2022-10-03T16:01:46;10.00;;;3.67;;
36747;SDS011;22716;51.556;5.080;2022-10-03T16:04:27;11.40;;;3.53;;
36747;SDS011;22716;51.556;5.080;2022-10-03T16:07:05;10.17;;;3.37;;
36747;SDS011;22716;51.556;5.080;2022-10-03T16:09:42;9.83;;;4.03;;
36747;SDS011;22716;51.556;5.080;2022-10-03T16:12:32;11.87;;;3.77;;
36747;SDS011;22716;51.556;5.080;2022-10-03T16:15:19;8.00;;;3.73;;
36747;SDS011;22716;51.556;5.080;2022-10-03T16:17:59;7.20;;;3.03;;
36747;SDS011;22716;51.556;5.080;2022-10-03T16:20:36;15.23;;;3.57;;
36747;SDS011;22716;51.556;5.080;2022-10-03T16:23:28;9.07;;;3.63;;
36747;SDS011;22716;51.556;5.080;2022-10-03T16:26:05;9.37;;;3.50;;
36747;SDS011;22716;51.556;5.080;2022-10-03T16:28:41;6.43;;;2.90;;
36747;SDS011;22716;51.556;5.080;2022-10-03T16:31:15;6.15;;;3.10;;
36747;SDS011;22716;51.556;5.080;2022-10-03T16:33:51;16.07;;;4.23;;
36747;SDS011;22716;51.556;5.080;2022-10-03T16:36:28;6.70;;;3.40;;
36747;SDS011;22716;51.556;5.080;2022-10-03T16:39:02;9.93;;;3.93;;
36747;SDS011;22716;51.556;5.080;2022-10-03T16:41:34;8.33;;;2.90;;
36747;SDS011;22716;51.556;5.080;2022-10-03T16:44:17;10.13;;;3.03;;
36747;SDS011;22716;51.556;5.080;2022-10-03T16:46:54;7.17;;;3.40;;
36747;SDS011;22716;51.556;5.080;2022-10-03T16:49:35;10.90;;;4.07;;
36747;SDS011;22716;51.556;5.080;2022-10-03T16:52:28;15.93;;;4.77;;
36747;SDS011;22716;51.556;5.080;2022-10-03T16:55:02;9.80;;;3.97;;
36747;SDS011;22716;51.556;5.080;2022-10-03T16:57:37;8.93;;;3.70;;
36747;SDS011;22716;51.556;5.080;2022-10-03T17:00:13;9.63;;;3.37;;
36747;SDS011;22716;51.556;5.080;2022-10-03T17:05:15;11.20;;;4.47;;
36747;SDS011;22716;51.556;5.080;2022-10-03T17:07:50;15.93;;;4.70;;
36747;SDS011;22716;51.556;5.080;2022-10-03T17:10:28;12.70;;;5.27;;
36747;SDS011;22716;51.556;5.080;2022-10-03T17:13:08;7.37;;;3.70;;
36747;SDS011;22716;51.556;5.080;2022-10-03T17:15:47;9.57;;;4.60;;
36747;SDS011;22716;51.556;5.080;2022-10-03T17:18:22;7.73;;;3.93;;
36747;SDS011;22716;51.556;5.080;2022-10-03T17:20:55;7.47;;;3.78;;
36747;SDS011;22716;51.556;5.080;2022-10-03T17:23:36;11.23;;;3.40;;
36747;SDS011;22716;51.556;5.080;2022-10-03T17:26:13;9.37;;;4.13;;
36747;SDS011;22716;51.556;5.080;2022-10-03T17:28:55;13.90;;;5.03;;
36747;SDS011;22716;51.556;5.080;2022-10-03T17:31:37;8.90;;;3.83;;
36747;SDS011;22716;51.556;5.080;2022-10-03T17:34:12;10.73;;;4.30;;
36747;SDS011;22716;51.556;5.080;2022-10-03T17:39:49;8.97;;;4.60;;
36747;SDS011;22716;51.556;5.080;2022-10-03T17:42:28;8.97;;;4.70;;
36747;SDS011;22716;51.556;5.080;2022-10-03T17:45:18;13.90;;;4.27;;
36747;SDS011;22716;51.556;5.080;2022-10-03T17:47:59;11.53;;;4.77;;
36747;SDS011;22716;51.556;5.080;2022-10-03T17:50:43;10.97;;;4.13;;
36747;SDS011;22716;51.556;5.080;2022-10-03T17:53:23;10.10;;;5.23;;
36747;SDS011;22716;51.556;5.080;2022-10-03T17:56:00;11.30;;;4.43;;
36747;SDS011;22716;51.556;5.080;2022-10-03T17:58:38;10.27;;;4.20;;
36747;SDS011;22716;51.556;5.080;2022-10-03T18:01:19;12.33;;;4.43;;
36747;SDS011;22716;51.556;5.080;2022-10-03T18:03:55;12.57;;;4.80;;
36747;SDS011;22716;51.556;5.080;2022-10-03T18:06:42;17.03;;;5.27;;
36747;SDS011;22716;51.556;5.080;2022-10-03T18:09:23;11.77;;;4.67;;
36747;SDS011;22716;51.556;5.080;2022-10-03T18:12:04;17.87;;;6.20;;
36747;SDS011;22716;51.556;5.080;2022-10-03T18:14:45;14.07;;;6.47;;
36747;SDS011;22716;51.556;5.080;2022-10-03T18:17:39;12.85;;;6.72;;
36747;SDS011;22716;51.556;5.080;2022-10-03T18:20:21;16.33;;;6.07;;
36747;SDS011;22716;51.556;5.080;2022-10-03T18:23:05;22.17;;;10.83;;
36747;SDS011;22716;51.556;5.080;2022-10-03T18:25:47;18.83;;;7.87;;
36747;SDS011;22716;51.556;5.080;2022-10-03T18:28:30;16.60;;;9.03;;
36747;SDS011;22716;51.556;5.080;2022-10-03T18:31:03;14.97;;;9.07;;
36747;SDS011;22716;51.556;5.080;2022-10-03T18:33:42;16.17;;;8.53;;
36747;SDS011;22716;51.556;5.080;2022-10-03T18:36:21;19.20;;;6.93;;
36747;SDS011;22716;51.556;5.080;2022-10-03T18:38:56;10.30;;;6.70;;
36747;SDS011;22716;51.556;5.080;2022-10-03T18:41:41;12.65;;;6.22;;
36747;SDS011;22716;51.556;5.080;2022-10-03T18:44:15;11.17;;;6.13;;
36747;SDS011;22716;51.556;5.080;2022-10-03T18:46:49;11.20;;;5.70;;
36747;SDS011;22716;51.556;5.080;2022-10-03T18:49:35;7.07;;;4.87;;
36747;SDS011;22716;51.556;5.080;2022-10-03T18:52:08;13.37;;;5.50;;
36747;SDS011;22716;51.556;5.080;2022-10-03T18:54:48;12.63;;;5.83;;
36747;SDS011;22716;51.556;5.080;2022-10-03T18:57:32;11.00;;;5.73;;
36747;SDS011;22716;51.556;5.080;2022-10-03T19:00:15;11.93;;;5.33;;
36747;SDS011;22716;51.556;5.080;2022-10-03T19:02:49;9.03;;;5.70;;
36747;SDS011;22716;51.556;5.080;2022-10-03T19:05:22;14.70;;;5.65;;
36747;SDS011;22716;51.556;5.080;2022-10-03T19:07:59;11.93;;;4.90;;
36747;SDS011;22716;51.556;5.080;2022-10-03T19:10:37;10.23;;;5.63;;
36747;SDS011;22716;51.556;5.080;2022-10-03T19:13:14;12.85;;;5.82;;
36747;SDS011;22716;51.556;5.080;2022-10-03T19:16:07;10.57;;;5.70;;
36747;SDS011;22716;51.556;5.080;2022-10-03T19:18:50;11.53;;;4.87;;
36747;SDS011;22716;51.556;5.080;2022-10-03T19:21:36;12.27;;;5.13;;
36747;SDS011;22716;51.556;5.080;2022-10-03T19:24:08;20.33;;;6.07;;
36747;SDS011;22716;51.556;5.080;2022-10-03T19:26:43;11.47;;;5.67;;
36747;SDS011;22716;51.556;5.080;2022-10-03T19:29:15;15.30;;;6.07;;
36747;SDS011;22716;51.556;5.080;2022-10-03T19:31:54;8.70;;;5.67;;
36747;SDS011;22716;51.556;5.080;2022-10-03T19:34:32;13.27;;;4.73;;
36747;SDS011;22716;51.556;5.080;2022-10-03T19:37:06;14.77;;;5.57;;
36747;SDS011;22716;51.556;5.080;2022-10-03T19:39:44;17.40;;;6.03;;
36747;SDS011;22716;51.556;5.080;2022-10-03T19:42:22;12.97;;;5.70;;
36747;SDS011;22716;51.556;5.080;2022-10-03T19:45:02;10.00;;;6.17;;
36747;SDS011;22716;51.556;5.080;2022-10-03T19:47:41;17.67;;;7.33;;
36747;SDS011;22716;51.556;5.080;2022-10-03T19:50:19;11.20;;;6.53;;
36747;SDS011;22716;51.556;5.080;2022-10-03T19:52:54;12.00;;;6.73;;
36747;SDS011;22716;51.556;5.080;2022-10-03T19:55:29;18.60;;;8.53;;